createdAt,value
2022-09-28T00:01:16.122Z,14.75
2022-09-28T00:03:44.273Z,15.40
2022-09-28T00:06:16.895Z,15.35
2022-09-28T00:08:44.511Z,13.10
2022-09-28T00:11:13.845Z,13.60
2022-09-28T00:13:41.645Z,15.15
2022-09-28T00:16:13.864Z,13.43
2022-09-28T00:18:42.079Z,13.02
2022-09-28T00:21:17.317Z,14.07
2022-09-28T00:23:59.579Z,13.30
2022-09-28T00:26:27.563Z,14.35
2022-09-28T00:28:55.524Z,13.45
2022-09-28T00:31:24.997Z,13.55
2022-09-28T00:33:52.976Z,12.95
2022-09-28T00:36:21.996Z,14.00
2022-09-28T00:38:49.793Z,14.80
2022-09-28T00:41:18.528Z,12.77
2022-09-28T00:43:46.286Z,12.65
2022-09-28T00:46:16.215Z,12.85
2022-09-28T00:48:53.769Z,14.52
2022-09-28T00:51:23.150Z,12.20
2022-09-28T00:53:51.848Z,13.13
2022-09-28T00:56:22.413Z,13.30
2022-09-28T00:58:51.755Z,13.10
2022-09-28T01:01:19.854Z,14.45
2022-09-28T01:03:48.841Z,13.60
2022-09-28T01:06:18.843Z,14.02
2022-09-28T01:08:51.588Z,12.93
2022-09-28T01:11:19.749Z,13.45
2022-09-28T01:13:47.877Z,11.88
2022-09-28T01:16:21.120Z,12.68
2022-09-28T01:18:55.834Z,12.25
2022-09-28T01:21:24.060Z,12.85
2022-09-28T01:24:03.321Z,13.32
2022-09-28T01:26:53.229Z,12.52
2022-09-28T01:29:27.369Z,13.85
2022-09-28T01:31:57.835Z,12.07
2022-09-28T01:34:28.781Z,12.77
2022-09-28T01:36:58.254Z,13.90
2022-09-28T01:39:30.122Z,12.23
2022-09-28T01:42:01.896Z,13.65
2022-09-28T01:44:31.255Z,13.35
2022-09-28T01:47:04.375Z,11.85
2022-09-28T01:49:35.378Z,13.23
2022-09-28T01:52:06.781Z,13.73
2022-09-28T01:54:38.067Z,13.40
2022-09-28T01:57:14.828Z,13.00
2022-09-28T01:59:45.486Z,12.55
2022-09-28T02:02:17.197Z,11.88
2022-09-28T02:04:46.794Z,13.68
2022-09-28T02:07:17.235Z,12.85
2022-09-28T02:09:47.281Z,12.25
2022-09-28T02:12:19.623Z,12.93
2022-09-28T02:14:48.543Z,12.63
2022-09-28T02:17:17.320Z,13.25
2022-09-28T02:19:45.372Z,13.18
2022-09-28T02:22:23.194Z,14.52
2022-09-28T02:24:54.941Z,12.90
2022-09-28T02:27:30.288Z,13.77
2022-09-28T02:29:57.954Z,13.00
2022-09-28T02:32:27.191Z,13.70
2022-09-28T02:34:55.999Z,14.65
2022-09-28T02:37:23.677Z,11.82
2022-09-28T02:39:51.447Z,13.63
2022-09-28T02:42:23.610Z,15.02
2022-09-28T02:45:01.377Z,12.55
2022-09-28T02:47:36.303Z,13.23
2022-09-28T02:50:09.189Z,12.80
2022-09-28T02:52:49.073Z,13.15
2022-09-28T02:55:21.193Z,12.13
2022-09-28T02:57:57.417Z,13.13
2022-09-28T03:00:26.703Z,13.35
2022-09-28T03:03:00.361Z,14.48
2022-09-28T03:05:33.078Z,14.45
2022-09-28T03:08:02.199Z,13.70
2022-09-28T03:10:33.641Z,14.02
2022-09-28T03:13:02.772Z,14.32
2022-09-28T03:15:32.579Z,13.13
2022-09-28T03:18:00.501Z,15.68
2022-09-28T03:20:29.027Z,13.35
2022-09-28T03:23:20.127Z,13.13
2022-09-28T03:25:44.386Z,13.25
2022-09-28T03:28:11.987Z,14.95
2022-09-28T03:30:41.798Z,14.80
2022-09-28T03:33:09.434Z,14.80
2022-09-28T03:35:37.033Z,14.88
2022-09-28T03:38:05.713Z,14.40
2022-09-28T03:40:33.474Z,14.57
2022-09-28T03:43:01.247Z,15.10
2022-09-28T03:45:29.054Z,16.15
2022-09-28T03:47:58.094Z,16.85
2022-09-28T03:50:26.070Z,15.90
2022-09-28T03:52:54.343Z,15.02
2022-09-28T03:55:21.932Z,15.23
2022-09-28T03:57:54.203Z,14.95
2022-09-28T04:00:21.949Z,14.60
2022-09-28T04:02:49.596Z,14.75
2022-09-28T04:05:18.683Z,15.93
2022-09-28T04:07:46.314Z,14.90
2022-09-28T04:10:13.964Z,15.05
2022-09-28T04:12:41.593Z,14.73
2022-09-28T04:15:09.717Z,14.50
2022-09-28T04:17:40.127Z,15.15
2022-09-28T04:20:09.093Z,15.40
2022-09-28T04:22:38.383Z,15.77
2022-09-28T04:25:06.325Z,16.15
2022-09-28T04:27:51.486Z,13.38
2022-09-28T04:30:19.126Z,15.23
2022-09-28T04:32:47.172Z,14.88
2022-09-28T04:35:14.980Z,15.50
2022-09-28T04:37:44.009Z,15.10
2022-09-28T04:40:11.878Z,15.30
2022-09-28T04:42:39.558Z,16.55
2022-09-28T04:45:07.945Z,15.00
2022-09-28T04:47:35.650Z,16.02
2022-09-28T04:50:03.315Z,14.90
2022-09-28T04:52:30.923Z,15.30
2022-09-28T04:54:59.913Z,14.07
2022-09-28T04:57:27.556Z,13.15
2022-09-28T04:59:55.177Z,14.85
2022-09-28T05:02:22.877Z,15.48
2022-09-28T05:04:50.489Z,14.55
2022-09-28T05:07:18.082Z,15.13
2022-09-28T05:09:45.687Z,14.38
2022-09-28T05:12:14.856Z,13.65
2022-09-28T05:14:42.460Z,13.25
2022-09-28T05:17:10.951Z,14.13
2022-09-28T05:19:38.604Z,14.65
2022-09-28T05:22:08.469Z,15.25
2022-09-28T05:24:36.134Z,15.65
2022-09-28T05:27:03.739Z,13.25
2022-09-28T05:29:32.899Z,15.00
2022-09-28T05:32:01.671Z,15.95
2022-09-28T05:34:29.794Z,15.25
2022-09-28T05:36:57.489Z,13.77
2022-09-28T05:39:25.175Z,13.80
2022-09-28T05:41:52.771Z,12.63
2022-09-28T05:44:20.359Z,12.70
2022-09-28T05:46:49.309Z,12.93
2022-09-28T05:49:16.924Z,13.30
2022-09-28T05:51:44.708Z,13.13
2022-09-28T05:54:12.463Z,13.40
2022-09-28T05:56:40.092Z,13.25
2022-09-28T05:59:07.740Z,12.90
2022-09-28T06:01:35.506Z,13.55
2022-09-28T06:04:04.510Z,12.95
2022-09-28T06:06:32.114Z,14.25
2022-09-28T06:08:59.740Z,14.65
2022-09-28T06:11:27.983Z,14.65
2022-09-28T06:13:56.131Z,14.43
2022-09-28T06:16:24.260Z,14.65
2022-09-28T06:18:51.905Z,14.70
2022-09-28T06:21:23.311Z,14.25
2022-09-28T06:23:50.923Z,13.85
2022-09-28T06:26:18.684Z,14.40
2022-09-28T06:28:46.389Z,13.50
2022-09-28T06:31:14.108Z,13.43
2022-09-28T06:33:42.826Z,13.95
2022-09-28T06:36:10.733Z,13.07
2022-09-28T06:38:39.716Z,12.95
2022-09-28T06:41:07.485Z,12.63
2022-09-28T06:43:35.139Z,12.20
2022-09-28T06:46:03.017Z,11.65
2022-09-28T06:48:31.887Z,12.90
2022-09-28T06:50:59.587Z,14.25
2022-09-28T06:53:28.290Z,12.90
2022-09-28T06:55:58.008Z,12.73
2022-09-28T06:58:28.273Z,13.68
2022-09-28T07:00:58.748Z,13.43
2022-09-28T07:03:26.581Z,12.65
2022-09-28T07:05:55.452Z,13.75
2022-09-28T07:08:24.848Z,13.60
2022-09-28T07:10:56.311Z,14.45
2022-09-28T07:16:13.692Z,12.80
2022-09-28T07:18:42.314Z,12.55
2022-09-28T07:21:20.691Z,14.23
2022-09-28T07:23:54.320Z,13.48
2022-09-28T07:26:24.333Z,12.98
2022-09-28T07:28:55.964Z,14.30
2022-09-28T07:31:25.314Z,14.25
2022-09-28T07:33:54.095Z,13.25
2022-09-28T07:36:22.912Z,12.23
2022-09-28T07:38:50.638Z,11.88
2022-09-28T07:41:22.579Z,13.82
2022-09-28T07:43:50.973Z,12.07
2022-09-28T07:46:20.841Z,13.70
2022-09-28T07:48:49.635Z,13.48
2022-09-28T07:51:19.979Z,13.05
2022-09-28T07:53:48.428Z,13.90
2022-09-28T07:56:19.123Z,13.00
2022-09-28T07:58:47.921Z,12.77
2022-09-28T08:01:16.755Z,12.57
2022-09-28T08:03:48.080Z,13.10
2022-09-28T08:06:17.287Z,13.73
2022-09-28T08:08:45.678Z,13.38
2022-09-28T08:11:13.727Z,12.55
2022-09-28T08:13:41.519Z,12.55
2022-09-28T08:16:09.108Z,11.05
2022-09-28T08:18:37.228Z,10.48
2022-09-28T08:21:24.256Z,11.38
2022-09-28T08:23:51.919Z,11.00
2022-09-28T08:26:19.944Z,10.50
2022-09-28T08:28:47.960Z,10.27
2022-09-28T08:31:15.689Z,10.55
2022-09-28T08:33:43.361Z,10.57
2022-09-28T08:36:12.376Z,8.80
2022-09-28T08:38:40.015Z,10.57
2022-09-28T08:41:12.799Z,10.35
2022-09-28T08:43:54.842Z,9.95
2022-09-28T08:46:26.434Z,8.00
2022-09-28T08:49:20.643Z,8.55
2022-09-28T08:51:49.759Z,8.20
2022-09-28T08:54:22.941Z,8.43
2022-09-28T08:56:52.957Z,8.82
2022-09-28T08:59:22.130Z,8.75
2022-09-28T09:01:53.800Z,8.07
2022-09-28T09:04:23.735Z,10.10
2022-09-28T09:07:02.863Z,9.02
2022-09-28T09:09:36.673Z,8.05
2022-09-28T09:12:07.780Z,8.57
2022-09-28T09:14:44.521Z,8.23
2022-09-28T09:17:18.546Z,9.57
2022-09-28T09:19:51.817Z,9.35
2022-09-28T09:22:26.082Z,8.93
2022-09-28T09:27:31.343Z,8.65
2022-09-28T09:30:04.584Z,8.68
2022-09-28T09:32:40.215Z,8.20
2022-09-28T09:35:30.574Z,8.20
2022-09-28T09:38:08.657Z,7.57
2022-09-28T09:40:45.826Z,8.85
2022-09-28T09:43:28.063Z,7.35
2022-09-28T09:46:04.395Z,7.95
2022-09-28T09:48:35.681Z,8.07
2022-09-28T09:51:06.014Z,8.18
2022-09-28T09:53:39.253Z,8.55
2022-09-28T09:56:09.369Z,7.68
2022-09-28T09:58:38.304Z,8.50
2022-09-28T10:01:08.541Z,8.00
2022-09-28T10:03:37.679Z,8.10
2022-09-28T10:06:07.445Z,8.50
2022-09-28T10:08:41.185Z,8.45
2022-09-28T10:11:10.901Z,8.27
2022-09-28T10:13:41.460Z,9.13
2022-09-28T10:16:09.411Z,8.15
2022-09-28T10:18:37.494Z,8.85
2022-09-28T10:21:05.537Z,9.07
2022-09-28T10:23:34.343Z,8.30
2022-09-28T10:26:07.144Z,8.55
2022-09-28T10:28:36.600Z,8.18
2022-09-28T10:31:19.105Z,8.68
2022-09-28T10:33:46.837Z,8.65
2022-09-28T10:36:15.969Z,7.72
2022-09-28T10:38:48.752Z,7.82
2022-09-28T10:41:18.414Z,7.70
2022-09-28T10:44:06.122Z,7.70
2022-09-28T10:46:34.761Z,7.53
2022-09-28T10:49:03.973Z,9.20
2022-09-28T10:51:41.314Z,9.05
2022-09-28T10:54:14.769Z,8.32
2022-09-28T10:56:44.020Z,9.23
2022-09-28T10:59:24.242Z,8.10
2022-09-28T11:01:55.404Z,8.07
2022-09-28T11:04:25.039Z,7.78
2022-09-28T11:06:52.851Z,7.90
2022-09-28T11:09:29.812Z,8.68
2022-09-28T11:12:00.740Z,7.63
2022-09-28T11:14:31.204Z,8.70
2022-09-28T11:17:18.076Z,8.82
2022-09-28T11:19:46.105Z,7.95
2022-09-28T11:22:28.915Z,8.48
2022-09-28T11:25:20.490Z,8.73
2022-09-28T11:27:58.237Z,8.68
2022-09-28T11:30:26.945Z,8.82
2022-09-28T11:32:56.186Z,9.65
2022-09-28T11:35:26.168Z,10.00
2022-09-28T11:38:03.140Z,8.10
2022-09-28T11:40:45.347Z,8.55
2022-09-28T11:43:19.146Z,8.93
2022-09-28T11:45:52.483Z,8.77
2022-09-28T11:48:23.175Z,10.18
2022-09-28T11:50:52.587Z,9.30
2022-09-28T11:53:23.483Z,9.05
2022-09-28T11:55:55.300Z,9.48
2022-09-28T11:58:27.333Z,9.18
2022-09-28T12:00:58.092Z,9.50
2022-09-28T12:03:28.252Z,9.90
2022-09-28T12:05:58.177Z,9.95
2022-09-28T12:08:28.749Z,9.98
2022-09-28T12:10:59.880Z,9.80
2022-09-28T12:13:31.175Z,10.45
2022-09-28T12:18:51.347Z,10.23
2022-09-28T12:21:32.579Z,10.55
2022-09-28T12:24:03.872Z,10.38
2022-09-28T12:26:37.288Z,10.88
2022-09-28T12:31:39.027Z,11.18
2022-09-28T12:34:06.830Z,10.77
2022-09-28T12:36:40.543Z,10.27
2022-09-28T12:39:27.487Z,11.07
2022-09-28T12:42:07.324Z,9.85
2022-09-28T12:44:48.089Z,9.93
2022-09-28T12:47:26.366Z,10.52
2022-09-28T12:52:56.969Z,10.60
2022-09-28T12:55:32.164Z,10.13
2022-09-28T12:58:07.816Z,10.07
2022-09-28T13:00:40.091Z,10.82
2022-09-28T13:03:35.131Z,11.00
2022-09-28T13:06:23.610Z,10.52
2022-09-28T13:09:01.306Z,12.45
2022-09-28T13:11:33.228Z,12.68
2022-09-28T13:14:11.417Z,11.95
2022-09-28T13:16:42.119Z,12.02
2022-09-28T13:19:14.066Z,11.93
2022-09-28T13:21:45.181Z,11.75
2022-09-28T13:24:31.475Z,13.20
2022-09-28T13:27:03.016Z,11.43
2022-09-28T13:29:30.716Z,13.00
2022-09-28T13:31:59.273Z,11.57
2022-09-28T13:34:28.380Z,12.80
2022-09-28T13:37:20.993Z,11.93
2022-09-28T13:39:52.315Z,13.35
2022-09-28T13:42:33.085Z,12.48
2022-09-28T13:45:18.129Z,13.00
2022-09-28T13:48:06.929Z,13.40
2022-09-28T13:50:39.720Z,13.55
2022-09-28T13:53:12.473Z,13.10
2022-09-28T13:55:51.048Z,12.80
2022-09-28T13:58:22.991Z,13.80
2022-09-28T14:00:52.420Z,14.38
2022-09-28T14:03:26.927Z,13.55
2022-09-28T14:06:05.477Z,13.63
2022-09-28T14:08:34.960Z,13.35
2022-09-28T14:11:24.645Z,13.65
2022-09-28T14:14:25.373Z,14.18
2022-09-28T14:16:58.884Z,12.52
2022-09-28T14:19:31.502Z,13.32
2022-09-28T14:22:07.485Z,13.80
2022-09-28T14:24:45.016Z,14.57
2022-09-28T14:27:33.496Z,14.48
2022-09-28T14:30:17.197Z,14.45
2022-09-28T14:32:49.632Z,13.77
2022-09-28T14:35:20.291Z,14.63
2022-09-28T14:38:07.256Z,14.30
2022-09-28T14:41:12.778Z,13.50
2022-09-28T14:43:59.042Z,12.60
2022-09-28T14:46:33.244Z,12.02
2022-09-28T14:52:02.309Z,46.58
2022-09-28T14:54:31.545Z,14.35
2022-09-28T14:57:08.264Z,11.70
2022-09-28T14:59:42.910Z,12.40
2022-09-28T15:02:17.483Z,11.38
2022-09-28T15:04:48.051Z,11.55
2022-09-28T15:07:27.169Z,11.57
2022-09-28T15:09:55.556Z,11.82
2022-09-28T15:12:25.263Z,12.43
2022-09-28T15:14:55.023Z,12.30
2022-09-28T15:17:24.949Z,12.30
2022-09-28T15:20:00.906Z,12.50
2022-09-28T15:22:30.296Z,13.10
2022-09-28T15:25:02.434Z,12.73
2022-09-28T15:27:35.577Z,13.18
2022-09-28T15:30:15.962Z,14.20
2022-09-28T15:32:45.007Z,13.07
2022-09-28T15:35:14.538Z,14.23
2022-09-28T15:37:42.483Z,14.43
2022-09-28T15:40:13.513Z,15.20
2022-09-28T15:42:41.184Z,15.00
2022-09-28T15:45:24.958Z,14.50
2022-09-28T15:47:58.462Z,14.87
2022-09-28T15:50:28.156Z,16.00
2022-09-28T15:52:57.535Z,16.60
2022-09-28T15:55:27.646Z,15.63
2022-09-28T15:58:08.927Z,16.60
2022-09-28T16:00:36.897Z,16.48
2022-09-28T16:03:24.476Z,16.65
2022-09-28T16:05:53.277Z,17.80
2022-09-28T16:08:25.988Z,19.48
2022-09-28T16:10:57.001Z,19.65
2022-09-28T16:13:25.858Z,18.60
2022-09-28T16:15:59.931Z,18.45
2022-09-28T16:21:21.580Z,19.23
2022-09-28T16:23:52.094Z,18.25
2022-09-28T16:26:29.755Z,20.77
2022-09-28T16:28:57.818Z,20.98
2022-09-28T16:31:29.042Z,21.75
2022-09-28T16:33:59.058Z,20.80
2022-09-28T16:36:29.934Z,21.13
2022-09-28T16:38:57.591Z,21.67
2022-09-28T16:41:27.940Z,22.50
2022-09-28T16:43:58.126Z,24.00
2022-09-28T16:46:29.840Z,23.13
2022-09-28T16:49:02.570Z,22.55
2022-09-28T16:51:31.940Z,22.55
2022-09-28T16:54:18.393Z,22.38
2022-09-28T16:56:46.085Z,22.80
2022-09-28T16:59:14.081Z,20.83
2022-09-28T17:01:43.908Z,22.80
2022-09-28T17:04:12.183Z,22.75
2022-09-28T17:06:42.482Z,21.92
2022-09-28T17:09:10.272Z,21.02
2022-09-28T17:11:38.333Z,21.33
2022-09-28T17:14:06.107Z,20.40
2022-09-28T17:19:22.930Z,19.60
2022-09-28T17:21:52.773Z,17.48
2022-09-28T17:24:20.945Z,10.38
2022-09-28T17:26:50.210Z,7.93
2022-09-28T17:29:20.259Z,6.75
2022-09-28T17:31:48.511Z,5.78
2022-09-28T17:34:16.906Z,4.95
2022-09-28T17:36:46.936Z,4.80
2022-09-28T17:39:16.675Z,4.15
2022-09-28T17:41:45.061Z,4.50
2022-09-28T17:44:29.408Z,4.55
2022-09-28T17:46:57.101Z,4.65
2022-09-28T17:49:24.910Z,4.45
2022-09-28T17:51:53.063Z,4.28
2022-09-28T17:54:23.385Z,4.70
2022-09-28T17:56:54.414Z,4.85
2022-09-28T17:59:23.109Z,4.53
2022-09-28T18:01:51.033Z,4.60
2022-09-28T18:04:47.294Z,5.03
2022-09-28T18:07:14.333Z,4.60
2022-09-28T18:09:44.144Z,4.15
2022-09-28T18:12:14.070Z,4.40
2022-09-28T18:14:46.945Z,5.75
2022-09-28T18:17:14.616Z,4.18
2022-09-28T18:19:44.002Z,4.50
2022-09-28T18:22:11.725Z,4.50
2022-09-28T18:24:39.470Z,4.55
2022-09-28T18:27:12.134Z,4.22
2022-09-28T18:29:41.604Z,4.35
2022-09-28T18:32:10.180Z,4.85
2022-09-28T18:34:38.112Z,4.05
2022-09-28T18:37:06.595Z,4.82
2022-09-28T18:39:35.992Z,4.53
2022-09-28T18:42:04.373Z,5.25
2022-09-28T18:44:35.002Z,4.32
2022-09-28T18:47:03.068Z,5.30
2022-09-28T18:49:31.356Z,4.38
2022-09-28T18:51:59.104Z,4.55
2022-09-28T18:54:27.965Z,4.28
2022-09-28T18:56:58.846Z,4.63
2022-09-28T18:59:26.617Z,5.13
2022-09-28T19:01:55.812Z,5.07
2022-09-28T19:04:23.881Z,5.07
2022-09-28T19:06:52.469Z,4.63
2022-09-28T19:09:21.806Z,5.00
2022-09-28T19:11:49.800Z,4.82
2022-09-28T19:14:20.739Z,5.65
2022-09-28T19:16:50.281Z,4.53
2022-09-28T19:19:20.803Z,5.65
2022-09-28T19:21:48.798Z,5.53
2022-09-28T19:24:23.816Z,5.05
2022-09-28T19:26:53.663Z,5.55
2022-09-28T19:29:23.208Z,5.70
2022-09-28T19:31:52.010Z,5.60
2022-09-28T19:34:24.604Z,5.13
2022-09-28T19:36:54.355Z,5.63
2022-09-28T19:39:21.991Z,5.18
2022-09-28T19:41:51.325Z,5.38
2022-09-28T19:44:25.614Z,4.95
2022-09-28T19:49:23.746Z,6.97
2022-09-28T19:54:44.223Z,5.35
2022-09-28T19:57:12.157Z,5.70
2022-09-28T19:59:47.493Z,5.53
2022-09-28T20:02:38.119Z,4.55
2022-09-28T20:05:08.346Z,4.90
2022-09-28T20:07:36.973Z,5.45
2022-09-28T20:10:04.982Z,5.47
2022-09-28T20:12:35.243Z,5.35
2022-09-28T20:15:03.209Z,5.72
2022-09-28T20:17:34.700Z,5.35
2022-09-28T20:20:03.536Z,6.43
2022-09-28T20:22:32.499Z,5.65
2022-09-28T20:25:03.258Z,5.93
2022-09-28T20:27:30.908Z,5.43
2022-09-28T20:29:59.259Z,6.15
2022-09-28T20:32:27.161Z,5.35
2022-09-28T20:34:59.498Z,5.15
2022-09-28T20:37:27.295Z,6.22
2022-09-28T20:40:01.809Z,6.05
2022-09-28T20:42:33.294Z,6.15
2022-09-28T20:45:00.915Z,5.63
2022-09-28T20:47:33.703Z,5.45
2022-09-28T20:50:01.374Z,6.20
2022-09-28T20:52:29.057Z,5.72
2022-09-28T20:54:56.708Z,5.35
2022-09-28T20:57:26.496Z,6.32
2022-09-28T20:59:54.967Z,5.68
2022-09-28T21:02:23.148Z,6.15
2022-09-28T21:04:51.033Z,5.70
2022-09-28T21:07:18.650Z,5.00
2022-09-28T21:09:46.244Z,5.50
2022-09-28T21:12:15.484Z,5.72
2022-09-28T21:14:44.541Z,5.15
2022-09-28T21:17:12.185Z,5.78
2022-09-28T21:19:39.827Z,6.57
2022-09-28T21:22:07.680Z,5.38
2022-09-28T21:24:35.394Z,5.38
2022-09-28T21:27:02.989Z,6.00
2022-09-28T21:29:30.646Z,4.85
2022-09-28T21:32:02.657Z,5.18
2022-09-28T21:34:30.274Z,5.68
2022-09-28T21:36:57.928Z,5.70
2022-09-28T21:39:25.666Z,6.15
2022-09-28T21:41:53.285Z,6.20
2022-09-28T21:44:21.039Z,6.40
2022-09-28T21:46:49.320Z,6.70
2022-09-28T21:49:18.433Z,6.88
2022-09-28T21:51:47.201Z,6.70
2022-09-28T21:54:15.154Z,6.50
2022-09-28T21:56:42.829Z,5.90
2022-09-28T21:59:10.499Z,6.38
2022-09-28T22:01:38.169Z,6.68
2022-09-28T22:04:06.006Z,6.03
2022-09-28T22:06:35.442Z,6.85
2022-09-28T22:09:04.252Z,6.70
2022-09-28T22:11:32.147Z,6.10
2022-09-28T22:14:00.787Z,7.15
2022-09-28T22:16:29.390Z,7.60
2022-09-28T22:18:57.424Z,7.53
2022-09-28T22:21:25.844Z,6.63
2022-09-28T22:23:57.387Z,7.80
2022-09-28T22:26:25.798Z,8.02
2022-09-28T22:28:54.146Z,8.32
2022-09-28T22:31:23.185Z,8.55
2022-09-28T22:33:52.257Z,7.13
2022-09-28T22:36:20.017Z,7.15
2022-09-28T22:38:48.038Z,6.97
2022-09-28T22:41:17.873Z,6.75
2022-09-28T22:43:45.560Z,6.82
2022-09-28T22:46:14.110Z,6.93
2022-09-28T22:48:42.439Z,7.13
2022-09-28T22:51:10.235Z,6.22
2022-09-28T22:53:39.798Z,6.20
2022-09-28T22:56:07.807Z,6.25
2022-09-28T22:58:37.070Z,6.28
2022-09-28T23:01:08.665Z,6.10
2022-09-28T23:03:36.449Z,5.82
2022-09-28T23:06:04.082Z,6.38
2022-09-28T23:08:32.218Z,6.15
2022-09-28T23:10:59.873Z,5.75
2022-09-28T23:13:27.606Z,6.63
2022-09-28T23:15:59.445Z,6.07
2022-09-28T23:18:28.870Z,6.28
2022-09-28T23:20:58.737Z,6.15
2022-09-28T23:23:26.647Z,6.25
2022-09-28T23:25:54.639Z,5.28
2022-09-28T23:28:23.363Z,5.80
2022-09-28T23:30:51.597Z,5.60
2022-09-28T23:33:24.687Z,5.78
2022-09-28T23:35:52.286Z,5.70
2022-09-28T23:38:20.029Z,6.40
2022-09-28T23:40:47.716Z,6.00
2022-09-28T23:43:15.484Z,5.78
2022-09-28T23:45:43.514Z,5.38
2022-09-28T23:48:11.337Z,5.70
2022-09-28T23:50:40.436Z,6.68
2022-09-28T23:53:08.131Z,5.80
2022-09-28T23:55:35.757Z,5.03
2022-09-28T23:58:03.373Z,6.10
